sensor_id;sensor_type;location;lat;lon;timestamp;pressure;altitude;pressure_sealevel;temperature;humidity
7109;BME280;29079;41.930;25.558;2023-05-10T00:01:26;100112.78;;;11.66;91.61
7109;BME280;29079;41.930;25.558;2023-05-10T00:03:59;100113.22;;;11.50;91.32
7109;BME280;29079;41.930;25.558;2023-05-10T00:06:34;100110.69;;;11.70;92.71
7109;BME280;29079;41.930;25.558;2023-05-10T00:09:07;100113.75;;;11.44;91.57
7109;BME280;29079;41.930;25.558;2023-05-10T00:11:40;100116.47;;;11.22;91.82
7109;BME280;29079;41.930;25.558;2023-05-10T00:14:13;100103.81;;;10.91;93.28
7109;BME280;29079;41.930;25.558;2023-05-10T00:16:46;100109.84;;;11.05;92.67
7109;BME280;29079;41.930;25.558;2023-05-10T00:19:19;100107.66;;;11.10;92.83
7109;BME280;29079;41.930;25.558;2023-05-10T00:21:53;100109.00;;;11.37;94.05
7109;BME280;29079;41.930;25.558;2023-05-10T00:24:26;100100.03;;;10.94;92.63
7109;BME280;29079;41.930;25.558;2023-05-10T00:26:59;100095.94;;;10.78;93.53
7109;BME280;29079;41.930;25.558;2023-05-10T00:29:32;100101.31;;;11.11;92.96
7109;BME280;29079;41.930;25.558;2023-05-10T00:32:05;100104.16;;;10.98;92.03
7109;BME280;29079;41.930;25.558;2023-05-10T00:34:38;100092.28;;;11.56;93.33
7109;BME280;29079;41.930;25.558;2023-05-10T00:37:13;100098.59;;;10.90;92.88
7109;BME280;29079;41.930;25.558;2023-05-10T00:39:45;100101.13;;;11.03;94.72
7109;BME280;29079;41.930;25.558;2023-05-10T00:42:18;100096.75;;;10.90;93.94
7109;BME280;29079;41.930;25.558;2023-05-10T00:44:51;100100.47;;;11.10;93.37
7109;BME280;29079;41.930;25.558;2023-05-10T00:47:24;100098.06;;;11.07;92.46
7109;BME280;29079;41.930;25.558;2023-05-10T00:49:58;100097.22;;;11.07;92.36
7109;BME280;29079;41.930;25.558;2023-05-10T00:52:33;100097.13;;;11.29;94.41
7109;BME280;29079;41.930;25.558;2023-05-10T00:55:06;100096.88;;;11.00;92.47
7109;BME280;29079;41.930;25.558;2023-05-10T00:57:39;100095.25;;;11.09;93.68
7109;BME280;29079;41.930;25.558;2023-05-10T01:00:12;100089.13;;;10.74;94.56
7109;BME280;29079;41.930;25.558;2023-05-10T01:02:49;100098.22;;;11.27;92.85
7109;BME280;29079;41.930;25.558;2023-05-10T01:05:22;100095.19;;;11.31;93.57
7109;BME280;29079;41.930;25.558;2023-05-10T01:07:57;100085.63;;;10.85;93.63
7109;BME280;29079;41.930;25.558;2023-05-10T01:10:30;100089.69;;;11.01;92.60
7109;BME280;29079;41.930;25.558;2023-05-10T01:13:03;100093.28;;;10.67;91.98
7109;BME280;29079;41.930;25.558;2023-05-10T01:15:37;100089.75;;;10.89;92.78
7109;BME280;29079;41.930;25.558;2023-05-10T01:18:10;100096.81;;;10.56;93.63
7109;BME280;29079;41.930;25.558;2023-05-10T01:20:43;100085.34;;;11.00;92.01
7109;BME280;29079;41.930;25.558;2023-05-10T01:23:34;100078.13;;;10.34;94.35
7109;BME280;29079;41.930;25.558;2023-05-10T01:29:11;100081.22;;;10.95;92.09
7109;BME280;29079;41.930;25.558;2023-05-10T01:34:42;100070.84;;;10.58;95.51
7109;BME280;29079;41.930;25.558;2023-05-10T01:37:20;100063.53;;;10.83;95.54
7109;BME280;29079;41.930;25.558;2023-05-10T01:39:55;100066.84;;;10.53;92.50
7109;BME280;29079;41.930;25.558;2023-05-10T01:42:32;100065.88;;;10.54;93.11
7109;BME280;29079;41.930;25.558;2023-05-10T01:45:11;100078.44;;;11.29;94.53
7109;BME280;29079;41.930;25.558;2023-05-10T01:47:46;100081.25;;;10.84;91.80
7109;BME280;29079;41.930;25.558;2023-05-10T01:50:24;100074.13;;;10.51;93.93
7109;BME280;29079;41.930;25.558;2023-05-10T01:53:00;100077.78;;;10.50;93.01
7109;BME280;29079;41.930;25.558;2023-05-10T01:55:35;100082.72;;;11.21;94.91
7109;BME280;29079;41.930;25.558;2023-05-10T01:58:08;100072.69;;;11.13;92.53
7109;BME280;29079;41.930;25.558;2023-05-10T02:00:43;100072.41;;;10.72;92.57
7109;BME280;29079;41.930;25.558;2023-05-10T02:03:17;100077.38;;;10.32;96.34
7109;BME280;29079;41.930;25.558;2023-05-10T02:05:52;100072.31;;;10.62;96.75
7109;BME280;29079;41.930;25.558;2023-05-10T02:08:26;100077.69;;;10.40;95.80
7109;BME280;29079;41.930;25.558;2023-05-10T02:10:59;100068.88;;;10.26;94.56
7109;BME280;29079;41.930;25.558;2023-05-10T02:13:33;100064.53;;;10.48;95.33
7109;BME280;29079;41.930;25.558;2023-05-10T02:16:08;100058.59;;;10.22;95.31
7109;BME280;29079;41.930;25.558;2023-05-10T02:18:42;100072.88;;;10.21;96.37
7109;BME280;29079;41.930;25.558;2023-05-10T02:21:16;100083.91;;;10.05;96.77
7109;BME280;29079;41.930;25.558;2023-05-10T02:23:50;100067.47;;;10.22;99.66
7109;BME280;29079;41.930;25.558;2023-05-10T02:26:24;100067.34;;;10.24;97.97
7109;BME280;29079;41.930;25.558;2023-05-10T02:28:58;100076.53;;;10.08;94.76
7109;BME280;29079;41.930;25.558;2023-05-10T02:31:32;100075.03;;;9.93;96.63
7109;BME280;29079;41.930;25.558;2023-05-10T02:34:05;100083.34;;;10.47;97.69
7109;BME280;29079;41.930;25.558;2023-05-10T02:36:40;100082.47;;;10.23;93.81
7109;BME280;29079;41.930;25.558;2023-05-10T02:39:13;100082.69;;;9.86;97.06
7109;BME280;29079;41.930;25.558;2023-05-10T02:41:47;100083.34;;;10.24;98.63
7109;BME280;29079;41.930;25.558;2023-05-10T02:44:20;100085.34;;;9.86;96.69
7109;BME280;29079;41.930;25.558;2023-05-10T02:46:55;100089.13;;;9.95;96.17
7109;BME280;29079;41.930;25.558;2023-05-10T02:49:28;100087.72;;;10.36;99.38
7109;BME280;29079;41.930;25.558;2023-05-10T02:52:04;100089.25;;;10.84;95.22
7109;BME280;29079;41.930;25.558;2023-05-10T02:54:39;100089.16;;;10.06;96.35
7109;BME280;29079;41.930;25.558;2023-05-10T02:57:14;100094.16;;;10.56;94.84
7109;BME280;29079;41.930;25.558;2023-05-10T02:59:49;100090.84;;;10.19;97.04
7109;BME280;29079;41.930;25.558;2023-05-10T03:02:22;100093.88;;;10.14;97.96
7109;BME280;29079;41.930;25.558;2023-05-10T03:04:55;100081.97;;;10.29;97.32
7109;BME280;29079;41.930;25.558;2023-05-10T03:07:30;100081.00;;;10.19;97.28
7109;BME280;29079;41.930;25.558;2023-05-10T03:10:03;100087.59;;;10.49;95.38
7109;BME280;29079;41.930;25.558;2023-05-10T03:12:55;100084.06;;;10.60;96.91
7109;BME280;29079;41.930;25.558;2023-05-10T03:15:31;100085.38;;;10.77;95.62
7109;BME280;29079;41.930;25.558;2023-05-10T03:18:11;100079.22;;;10.54;97.22
7109;BME280;29079;41.930;25.558;2023-05-10T03:20:47;100084.06;;;10.26;98.45
7109;BME280;29079;41.930;25.558;2023-05-10T03:23:22;100084.56;;;10.31;94.62
7109;BME280;29079;41.930;25.558;2023-05-10T03:25:58;100093.25;;;10.10;95.74
7109;BME280;29079;41.930;25.558;2023-05-10T03:28:33;100091.66;;;9.97;97.59
7109;BME280;29079;41.930;25.558;2023-05-10T03:31:06;100084.66;;;10.29;96.38
7109;BME280;29079;41.930;25.558;2023-05-10T03:33:45;100095.22;;;10.31;92.68
7109;BME280;29079;41.930;25.558;2023-05-10T03:36:18;100095.09;;;10.33;97.12
7109;BME280;29079;41.930;25.558;2023-05-10T03:38:53;100099.47;;;10.22;94.79
7109;BME280;29079;41.930;25.558;2023-05-10T03:41:26;100097.41;;;10.71;94.57
7109;BME280;29079;41.930;25.558;2023-05-10T03:43:58;100098.16;;;9.81;96.18
7109;BME280;29079;41.930;25.558;2023-05-10T03:46:31;100096.47;;;10.38;94.09
7109;BME280;29079;41.930;25.558;2023-05-10T03:49:05;100093.38;;;9.98;95.24
7109;BME280;29079;41.930;25.558;2023-05-10T03:51:37;100099.13;;;9.80;96.63
7109;BME280;29079;41.930;25.558;2023-05-10T03:54:12;100098.47;;;10.01;95.18
7109;BME280;29079;41.930;25.558;2023-05-10T03:56:47;100096.66;;;10.13;93.43
7109;BME280;29079;41.930;25.558;2023-05-10T03:59:20;100104.56;;;10.37;95.74
7109;BME280;29079;41.930;25.558;2023-05-10T04:01:53;100100.81;;;10.73;94.72
7109;BME280;29079;41.930;25.558;2023-05-10T04:04:26;100107.31;;;10.92;94.13
7109;BME280;29079;41.930;25.558;2023-05-10T04:06:58;100115.44;;;10.11;95.71
7109;BME280;29079;41.930;25.558;2023-05-10T04:09:33;100115.50;;;10.56;93.63
7109;BME280;29079;41.930;25.558;2023-05-10T04:12:06;100116.34;;;10.45;95.50
7109;BME280;29079;41.930;25.558;2023-05-10T04:14:41;100113.28;;;10.73;93.07
7109;BME280;29079;41.930;25.558;2023-05-10T04:17:14;100116.22;;;10.36;92.72
7109;BME280;29079;41.930;25.558;2023-05-10T04:19:47;100111.00;;;10.57;94.60
7109;BME280;29079;41.930;25.558;2023-05-10T04:22:21;100118.16;;;10.68;92.81
7109;BME280;29079;41.930;25.558;2023-05-10T04:24:55;100116.72;;;10.63;92.51
7109;BME280;29079;41.930;25.558;2023-05-10T04:27:28;100122.78;;;10.54;94.88
7109;BME280;29079;41.930;25.558;2023-05-10T04:30:01;100125.50;;;10.19;93.39
7109;BME280;29079;41.930;25.558;2023-05-10T04:32:34;100126.56;;;10.05;93.64
7109;BME280;29079;41.930;25.558;2023-05-10T04:35:07;100133.47;;;10.54;94.58
7109;BME280;29079;41.930;25.558;2023-05-10T04:37:41;100129.59;;;10.47;92.86
7109;BME280;29079;41.930;25.558;2023-05-10T04:40:16;100129.94;;;10.65;92.34
7109;BME280;29079;41.930;25.558;2023-05-10T04:42:49;100128.25;;;10.41;93.88
7109;BME280;29079;41.930;25.558;2023-05-10T04:45:22;100122.41;;;10.59;94.34
7109;BME280;29079;41.930;25.558;2023-05-10T04:47:55;100120.94;;;10.43;91.25
7109;BME280;29079;41.930;25.558;2023-05-10T04:50:28;100115.00;;;10.51;94.45
7109;BME280;29079;41.930;25.558;2023-05-10T04:53:00;100121.13;;;11.08;91.75
7109;BME280;29079;41.930;25.558;2023-05-10T04:55:35;100127.88;;;10.57;91.86
7109;BME280;29079;41.930;25.558;2023-05-10T04:58:09;100125.44;;;10.66;90.79
7109;BME280;29079;41.930;25.558;2023-05-10T05:00:42;100127.50;;;10.51;93.69
7109;BME280;29079;41.930;25.558;2023-05-10T05:03:15;100130.53;;;10.69;90.77
7109;BME280;29079;41.930;25.558;2023-05-10T05:05:48;100138.16;;;10.39;92.46
7109;BME280;29079;41.930;25.558;2023-05-10T05:08:21;100135.72;;;10.82;92.46
7109;BME280;29079;41.930;25.558;2023-05-10T05:10:56;100129.44;;;10.60;93.48
7109;BME280;29079;41.930;25.558;2023-05-10T05:13:31;100133.69;;;10.74;90.67
7109;BME280;29079;41.930;25.558;2023-05-10T05:16:05;100140.16;;;11.15;90.63
7109;BME280;29079;41.930;25.558;2023-05-10T05:18:38;100139.75;;;10.76;93.17
7109;BME280;29079;41.930;25.558;2023-05-10T05:21:14;100149.31;;;10.90;90.72
7109;BME280;29079;41.930;25.558;2023-05-10T05:23:47;100148.56;;;10.99;92.07
7109;BME280;29079;41.930;25.558;2023-05-10T05:26:22;100145.91;;;10.99;88.64
7109;BME280;29079;41.930;25.558;2023-05-10T05:28:55;100152.38;;;10.85;91.54
7109;BME280;29079;41.930;25.558;2023-05-10T05:31:28;100150.91;;;10.70;93.23
7109;BME280;29079;41.930;25.558;2023-05-10T05:34:02;100148.25;;;10.81;92.06
7109;BME280;29079;41.930;25.558;2023-05-10T05:36:35;100147.38;;;10.92;90.92
7109;BME280;29079;41.930;25.558;2023-05-10T05:39:09;100143.75;;;10.93;90.61
7109;BME280;29079;41.930;25.558;2023-05-10T05:41:44;100145.81;;;10.78;91.14
7109;BME280;29079;41.930;25.558;2023-05-10T05:44:17;100151.00;;;11.02;90.35
7109;BME280;29079;41.930;25.558;2023-05-10T05:46:50;100146.78;;;10.66;90.72
7109;BME280;29079;41.930;25.558;2023-05-10T05:49:23;100152.25;;;10.53;92.62
7109;BME280;29079;41.930;25.558;2023-05-10T05:51:58;100156.97;;;10.49;90.87
7109;BME280;29079;41.930;25.558;2023-05-10T05:54:31;100144.66;;;11.26;90.54
7109;BME280;29079;41.930;25.558;2023-05-10T05:57:05;100151.03;;;10.91;88.25
7109;BME280;29079;41.930;25.558;2023-05-10T05:59:38;100155.75;;;11.10;88.06
7109;BME280;29079;41.930;25.558;2023-05-10T06:02:15;100159.16;;;10.67;89.51
7109;BME280;29079;41.930;25.558;2023-05-10T06:04:48;100156.19;;;11.15;89.91
7109;BME280;29079;41.930;25.558;2023-05-10T06:07:21;100150.84;;;11.26;90.36
7109;BME280;29079;41.930;25.558;2023-05-10T06:09:54;100157.47;;;11.00;89.58
7109;BME280;29079;41.930;25.558;2023-05-10T06:12:29;100153.03;;;11.21;92.03
7109;BME280;29079;41.930;25.558;2023-05-10T06:15:02;100149.53;;;11.09;90.66
7109;BME280;29079;41.930;25.558;2023-05-10T06:17:35;100153.59;;;10.92;88.25
7109;BME280;29079;41.930;25.558;2023-05-10T06:20:08;100154.53;;;10.91;89.23
7109;BME280;29079;41.930;25.558;2023-05-10T06:22:41;100158.69;;;10.84;90.24
7109;BME280;29079;41.930;25.558;2023-05-10T06:25:14;100161.84;;;10.78;89.16
7109;BME280;29079;41.930;25.558;2023-05-10T06:27:51;100165.03;;;11.71;90.38
7109;BME280;29079;41.930;25.558;2023-05-10T06:30:28;100161.09;;;11.75;89.72
7109;BME280;29079;41.930;25.558;2023-05-10T06:33:01;100161.78;;;11.56;89.36
7109;BME280;29079;41.930;25.558;2023-05-10T06:35:35;100170.16;;;11.19;89.79
7109;BME280;29079;41.930;25.558;2023-05-10T06:38:08;100166.88;;;11.91;90.08
7109;BME280;29079;41.930;25.558;2023-05-10T06:40:42;100166.97;;;11.36;86.99
7109;BME280;29079;41.930;25.558;2023-05-10T06:43:16;100166.03;;;11.58;91.91
7109;BME280;29079;41.930;25.558;2023-05-10T06:45:49;100163.75;;;12.28;93.12
7109;BME280;29079;41.930;25.558;2023-05-10T06:48:23;100164.84;;;11.51;86.83
7109;BME280;29079;41.930;25.558;2023-05-10T06:50:56;100165.41;;;11.98;85.39
7109;BME280;29079;41.930;25.558;2023-05-10T06:53:30;100165.19;;;11.58;86.98
7109;BME280;29079;41.930;25.558;2023-05-10T06:56:03;100160.69;;;11.58;88.45
7109;BME280;29079;41.930;25.558;2023-05-10T06:58:37;100155.72;;;12.28;88.10
7109;BME280;29079;41.930;25.558;2023-05-10T07:01:10;100156.13;;;12.24;89.84
7109;BME280;29079;41.930;25.558;2023-05-10T07:03:44;100157.88;;;11.92;85.93
7109;BME280;29079;41.930;25.558;2023-05-10T07:06:17;100149.53;;;12.07;89.41
7109;BME280;29079;41.930;25.558;2023-05-10T07:09:03;100151.25;;;12.08;82.21
7109;BME280;29079;41.930;25.558;2023-05-10T07:11:36;100150.78;;;12.54;89.66
7109;BME280;29079;41.930;25.558;2023-05-10T07:14:10;100160.63;;;12.02;83.98
7109;BME280;29079;41.930;25.558;2023-05-10T07:16:43;100152.53;;;12.65;89.79
7109;BME280;29079;41.930;25.558;2023-05-10T07:19:16;100157.94;;;12.44;88.41
7109;BME280;29079;41.930;25.558;2023-05-10T07:21:50;100156.75;;;12.99;90.59
7109;BME280;29079;41.930;25.558;2023-05-10T07:24:23;100156.06;;;12.14;88.83
7109;BME280;29079;41.930;25.558;2023-05-10T07:26:55;100161.75;;;11.99;88.26
7109;BME280;29079;41.930;25.558;2023-05-10T07:29:30;100157.69;;;12.26;81.12
7109;BME280;29079;41.930;25.558;2023-05-10T07:32:03;100164.66;;;12.39;86.42
7109;BME280;29079;41.930;25.558;2023-05-10T07:34:36;100162.22;;;12.26;86.97
7109;BME280;29079;41.930;25.558;2023-05-10T07:37:09;100164.28;;;12.22;87.55
7109;BME280;29079;41.930;25.558;2023-05-10T07:39:42;100168.19;;;12.70;86.51
7109;BME280;29079;41.930;25.558;2023-05-10T07:42:15;100165.56;;;12.49;85.85
7109;BME280;29079;41.930;25.558;2023-05-10T07:44:50;100167.84;;;12.53;86.27
7109;BME280;29079;41.930;25.558;2023-05-10T07:47:23;100172.31;;;13.15;87.59
7109;BME280;29079;41.930;25.558;2023-05-10T07:49:56;100173.75;;;12.88;86.67
7109;BME280;29079;41.930;25.558;2023-05-10T07:52:29;100171.44;;;13.04;79.31
7109;BME280;29079;41.930;25.558;2023-05-10T07:55:03;100172.81;;;12.99;89.28
7109;BME280;29079;41.930;25.558;2023-05-10T07:57:36;100173.69;;;13.09;86.32
7109;BME280;29079;41.930;25.558;2023-05-10T08:00:11;100172.72;;;13.20;90.96
7109;BME280;29079;41.930;25.558;2023-05-10T08:02:44;100175.69;;;12.76;82.77
7109;BME280;29079;41.930;25.558;2023-05-10T08:05:17;100172.59;;;13.21;91.80
7109;BME280;29079;41.930;25.558;2023-05-10T08:07:50;100174.00;;;12.75;88.57
7109;BME280;29079;41.930;25.558;2023-05-10T08:10:24;100169.19;;;13.10;90.08
7109;BME280;29079;41.930;25.558;2023-05-10T08:12:57;100183.31;;;13.21;77.04
7109;BME280;29079;41.930;25.558;2023-05-10T08:15:31;100188.50;;;13.73;92.98
7109;BME280;29079;41.930;25.558;2023-05-10T08:18:04;100195.09;;;12.99;74.20
7109;BME280;29079;41.930;25.558;2023-05-10T08:20:37;100186.50;;;12.96;77.20
7109;BME280;29079;41.930;25.558;2023-05-10T08:23:11;100185.69;;;13.15;76.49
7109;BME280;29079;41.930;25.558;2023-05-10T08:25:45;100193.84;;;13.54;91.81
7109;BME280;29079;41.930;25.558;2023-05-10T08:28:17;100186.25;;;13.69;84.39
7109;BME280;29079;41.930;25.558;2023-05-10T08:30:52;100192.63;;;13.27;88.07
7109;BME280;29079;41.930;25.558;2023-05-10T08:33:25;100193.06;;;13.22;86.80
7109;BME280;29079;41.930;25.558;2023-05-10T08:35:58;100194.66;;;13.45;77.23
7109;BME280;29079;41.930;25.558;2023-05-10T08:38:32;100200.59;;;13.38;84.75
7109;BME280;29079;41.930;25.558;2023-05-10T08:41:05;100208.81;;;13.66;82.50
7109;BME280;29079;41.930;25.558;2023-05-10T08:43:37;100203.81;;;13.32;75.98
7109;BME280;29079;41.930;25.558;2023-05-10T08:46:15;100204.19;;;13.18;82.82
7109;BME280;29079;41.930;25.558;2023-05-10T08:48:49;100206.13;;;13.47;87.73
7109;BME280;29079;41.930;25.558;2023-05-10T08:51:24;100202.84;;;13.43;86.05
7109;BME280;29079;41.930;25.558;2023-05-10T08:53:58;100200.78;;;13.66;85.43
7109;BME280;29079;41.930;25.558;2023-05-10T08:56:31;100199.91;;;13.56;76.82
7109;BME280;29079;41.930;25.558;2023-05-10T08:59:04;100202.22;;;13.20;83.33
7109;BME280;29079;41.930;25.558;2023-05-10T09:01:39;100199.38;;;12.81;78.27
7109;BME280;29079;41.930;25.558;2023-05-10T09:04:13;100203.78;;;12.82;80.70
7109;BME280;29079;41.930;25.558;2023-05-10T09:06:47;100205.84;;;13.09;77.67
7109;BME280;29079;41.930;25.558;2023-05-10T09:09:20;100203.03;;;13.11;76.97
7109;BME280;29079;41.930;25.558;2023-05-10T09:11:54;100201.84;;;12.94;75.90
7109;BME280;29079;41.930;25.558;2023-05-10T09:14:26;100201.03;;;13.53;79.15
7109;BME280;29079;41.930;25.558;2023-05-10T09:17:01;100203.16;;;13.69;82.39
7109;BME280;29079;41.930;25.558;2023-05-10T09:19:34;100196.81;;;13.51;81.12
7109;BME280;29079;41.930;25.558;2023-05-10T09:22:07;100199.91;;;13.05;76.26
7109;BME280;29079;41.930;25.558;2023-05-10T09:24:42;100194.91;;;13.22;77.22
7109;BME280;29079;41.930;25.558;2023-05-10T09:27:16;100192.28;;;13.01;79.38
7109;BME280;29079;41.930;25.558;2023-05-10T09:29:49;100195.41;;;13.66;77.26
7109;BME280;29079;41.930;25.558;2023-05-10T09:32:37;100200.06;;;13.84;78.64
7109;BME280;29079;41.930;25.558;2023-05-10T09:35:10;100192.75;;;13.76;81.02
7109;BME280;29079;41.930;25.558;2023-05-10T09:37:45;100189.78;;;13.09;74.47
7109;BME280;29079;41.930;25.558;2023-05-10T09:40:20;100197.50;;;13.53;80.94
7109;BME280;29079;41.930;25.558;2023-05-10T09:42:53;100195.97;;;13.89;79.78
7109;BME280;29079;41.930;25.558;2023-05-10T09:45:27;100189.19;;;13.56;70.52
7109;BME280;29079;41.930;25.558;2023-05-10T09:48:02;100188.38;;;13.85;76.72
7109;BME280;29079;41.930;25.558;2023-05-10T09:50:35;100184.09;;;13.53;76.45
7109;BME280;29079;41.930;25.558;2023-05-10T09:53:09;100184.25;;;13.81;78.53
7109;BME280;29079;41.930;25.558;2023-05-10T09:55:43;100176.38;;;13.99;78.24
7109;BME280;29079;41.930;25.558;2023-05-10T09:58:17;100167.59;;;13.38;69.69
7109;BME280;29079;41.930;25.558;2023-05-10T10:00:50;100170.72;;;13.82;74.25
7109;BME280;29079;41.930;25.558;2023-05-10T10:03:25;100168.88;;;13.83;73.18
7109;BME280;29079;41.930;25.558;2023-05-10T10:06:00;100158.84;;;14.04;72.12
7109;BME280;29079;41.930;25.558;2023-05-10T10:08:34;100160.66;;;14.14;72.12
7109;BME280;29079;41.930;25.558;2023-05-10T10:11:07;100154.88;;;14.56;73.78
7109;BME280;29079;41.930;25.558;2023-05-10T10:13:40;100147.91;;;14.35;72.77
7109;BME280;29079;41.930;25.558;2023-05-10T10:16:13;100147.97;;;13.96;69.58
7109;BME280;29079;41.930;25.558;2023-05-10T10:18:48;100158.56;;;13.88;67.46
7109;BME280;29079;41.930;25.558;2023-05-10T10:21:21;100148.84;;;13.77;70.01
7109;BME280;29079;41.930;25.558;2023-05-10T10:23:54;100159.44;;;13.88;69.67
7109;BME280;29079;41.930;25.558;2023-05-10T10:26:27;100152.06;;;13.81;67.86
7109;BME280;29079;41.930;25.558;2023-05-10T10:29:07;100138.44;;;14.21;78.33
7109;BME280;29079;41.930;25.558;2023-05-10T10:31:45;100144.16;;;13.79;67.33
7109;BME280;29079;41.930;25.558;2023-05-10T10:34:24;100143.59;;;13.95;68.03
7109;BME280;29079;41.930;25.558;2023-05-10T10:36:59;100130.22;;;14.33;77.25
7109;BME280;29079;41.930;25.558;2023-05-10T10:39:36;100136.22;;;14.17;69.54
7109;BME280;29079;41.930;25.558;2023-05-10T10:42:09;100138.50;;;14.02;76.13
7109;BME280;29079;41.930;25.558;2023-05-10T10:44:42;100135.47;;;14.24;71.81
7109;BME280;29079;41.930;25.558;2023-05-10T10:47:23;100130.00;;;14.16;73.29
7109;BME280;29079;41.930;25.558;2023-05-10T10:50:06;100125.94;;;14.50;77.46
7109;BME280;29079;41.930;25.558;2023-05-10T10:52:39;100120.13;;;14.64;81.27
7109;BME280;29079;41.930;25.558;2023-05-10T10:55:13;100130.75;;;15.11;78.42
7109;BME280;29079;41.930;25.558;2023-05-10T10:57:47;100128.06;;;14.46;69.59
7109;BME280;29079;41.930;25.558;2023-05-10T11:00:21;100126.81;;;14.40;71.82
7109;BME280;29079;41.930;25.558;2023-05-10T11:02:58;100128.31;;;15.36;66.82
7109;BME280;29079;41.930;25.558;2023-05-10T11:05:36;100118.13;;;15.40;82.40
7109;BME280;29079;41.930;25.558;2023-05-10T11:08:12;100113.03;;;15.37;75.36
7109;BME280;29079;41.930;25.558;2023-05-10T11:10:53;100112.44;;;14.97;70.46
7109;BME280;29079;41.930;25.558;2023-05-10T11:13:27;100116.56;;;15.37;68.55
7109;BME280;29079;41.930;25.558;2023-05-10T11:16:09;100109.97;;;15.31;69.84
7109;BME280;29079;41.930;25.558;2023-05-10T11:21:51;100108.41;;;15.65;73.06
7109;BME280;29079;41.930;25.558;2023-05-10T11:24:26;100106.34;;;15.59;78.43
7109;BME280;29079;41.930;25.558;2023-05-10T11:27:00;100119.41;;;15.18;65.46
7109;BME280;29079;41.930;25.558;2023-05-10T11:29:33;100108.66;;;15.18;81.18
7109;BME280;29079;41.930;25.558;2023-05-10T11:32:06;100102.03;;;15.12;68.37
7109;BME280;29079;41.930;25.558;2023-05-10T11:34:40;100103.28;;;14.90;72.50
7109;BME280;29079;41.930;25.558;2023-05-10T11:37:14;100098.69;;;15.28;69.08
7109;BME280;29079;41.930;25.558;2023-05-10T11:39:47;100101.88;;;15.13;66.33
7109;BME280;29079;41.930;25.558;2023-05-10T11:42:20;100103.81;;;15.21;70.18
7109;BME280;29079;41.930;25.558;2023-05-10T11:44:53;100098.28;;;15.41;64.96
7109;BME280;29079;41.930;25.558;2023-05-10T11:47:26;100084.81;;;15.95;79.52
7109;BME280;29079;41.930;25.558;2023-05-10T11:49:59;100099.19;;;15.31;72.69
7109;BME280;29079;41.930;25.558;2023-05-10T11:52:36;100092.66;;;15.70;77.48
7109;BME280;29079;41.930;25.558;2023-05-10T11:55:09;100093.34;;;15.36;72.94
7109;BME280;29079;41.930;25.558;2023-05-10T11:57:42;100087.78;;;16.44;74.15
7109;BME280;29079;41.930;25.558;2023-05-10T12:00:17;100085.31;;;15.98;76.77
7109;BME280;29079;41.930;25.558;2023-05-10T12:02:50;100079.19;;;15.88;72.64
7109;BME280;29079;41.930;25.558;2023-05-10T12:05:24;100087.28;;;16.14;66.40
7109;BME280;29079;41.930;25.558;2023-05-10T12:08:11;100085.16;;;16.00;79.51
7109;BME280;29079;41.930;25.558;2023-05-10T12:10:44;100087.50;;;15.95;63.87
7109;BME280;29079;41.930;25.558;2023-05-10T12:13:18;100083.13;;;15.76;71.16
7109;BME280;29079;41.930;25.558;2023-05-10T12:15:52;100069.72;;;16.02;74.50
7109;BME280;29079;41.930;25.558;2023-05-10T12:18:25;100062.59;;;15.75;71.42
7109;BME280;29079;41.930;25.558;2023-05-10T12:21:02;100060.91;;;16.26;81.86
7109;BME280;29079;41.930;25.558;2023-05-10T12:23:37;100054.41;;;16.37;72.65
7109;BME280;29079;41.930;25.558;2023-05-10T12:26:10;100054.53;;;15.75;62.38
7109;BME280;29079;41.930;25.558;2023-05-10T12:28:43;100045.66;;;16.00;74.54
7109;BME280;29079;41.930;25.558;2023-05-10T12:31:16;100054.78;;;16.08;64.26
7109;BME280;29079;41.930;25.558;2023-05-10T12:33:51;100061.69;;;15.66;73.60
7109;BME280;29079;41.930;25.558;2023-05-10T12:36:24;100048.50;;;16.76;74.74
7109;BME280;29079;41.930;25.558;2023-05-10T12:39:03;100052.81;;;15.92;74.57
7109;BME280;29079;41.930;25.558;2023-05-10T12:41:36;100037.50;;;16.61;74.91
7109;BME280;29079;41.930;25.558;2023-05-10T12:44:11;100035.06;;;16.07;78.97
7109;BME280;29079;41.930;25.558;2023-05-10T12:46:44;100040.78;;;16.04;75.96
7109;BME280;29079;41.930;25.558;2023-05-10T12:49:17;100039.63;;;16.49;72.24
7109;BME280;29079;41.930;25.558;2023-05-10T12:51:51;100046.06;;;16.48;63.13
7109;BME280;29079;41.930;25.558;2023-05-10T12:54:25;100034.84;;;15.74;62.81
7109;BME280;29079;41.930;25.558;2023-05-10T12:56:58;100027.50;;;15.40;62.11
7109;BME280;29079;41.930;25.558;2023-05-10T12:59:31;100025.38;;;15.44;63.37
7109;BME280;29079;41.930;25.558;2023-05-10T13:02:07;100021.69;;;15.71;64.49
7109;BME280;29079;41.930;25.558;2023-05-10T13:04:40;100019.09;;;15.35;64.22
7109;BME280;29079;41.930;25.558;2023-05-10T13:07:13;100010.34;;;15.59;71.98
7109;BME280;29079;41.930;25.558;2023-05-10T13:09:50;100001.09;;;15.80;73.42
7109;BME280;29079;41.930;25.558;2023-05-10T13:12:23;100001.50;;;15.67;68.72
7109;BME280;29079;41.930;25.558;2023-05-10T13:14:56;100004.22;;;15.75;72.19
7109;BME280;29079;41.930;25.558;2023-05-10T13:17:29;100009.06;;;15.45;62.78
7109;BME280;29079;41.930;25.558;2023-05-10T13:20:05;100009.72;;;15.21;63.08
7109;BME280;29079;41.930;25.558;2023-05-10T13:22:38;100001.59;;;15.57;71.19
7109;BME280;29079;41.930;25.558;2023-05-10T13:25:13;100001.16;;;15.44;70.65
7109;BME280;29079;41.930;25.558;2023-05-10T13:27:46;100001.13;;;14.82;64.96
7109;BME280;29079;41.930;25.558;2023-05-10T13:30:19;100003.50;;;15.21;67.11
7109;BME280;29079;41.930;25.558;2023-05-10T13:32:52;100004.03;;;15.69;71.75
7109;BME280;29079;41.930;25.558;2023-05-10T13:35:25;100009.06;;;15.45;71.75